Time;durP1;ratioP1;P1;durP2;ratioP2;P2;SDS_P1;SDS_P2;PMS_P1;PMS_P2;Temp;Humidity;BMP_temperature;BMP_pressure;BME280_temperature;BME280_humidity;BME280_pressure;Samples;Min_cycle;Max_cycle;Signal;HPM_P1;HPM_P2
2022/02/22 00:01:21;;;;;;;;;;;;;;;22.04;26.27;96774.16;5079772;28;1028;-78
2022/02/22 00:03:47;;;;;;;;;;;;;;;21.95;26.40;96770.56;5078330;28;1978;-77
2022/02/22 00:06:13;;;;;;;;;;;;;;;21.87;27.02;96764.47;5079640;28;947;-76
2022/02/22 00:08:38;;;;;;;;;;;;;;;21.99;26.82;96759.84;5078313;28;854;-77
2022/02/22 00:11:04;;;;;;;;;;;;;;;21.94;26.99;96760.50;5060061;28;909;-76
2022/02/22 00:13:29;;;;;;;;;;;;;;;21.96;26.80;96757.97;5055882;28;956;-77
2022/02/22 00:15:55;;;;;;;;;;;;;;;22.15;26.86;96756.66;5040151;28;891;-76
2022/02/22 00:18:20;;;;;;;;;;;;;;;22.38;26.21;96760.00;5055703;28;1288;-78
2022/02/22 00:20:46;;;;;;;;;;;;;;;22.25;26.06;96746.84;5056763;28;1143;-77
2022/02/22 00:23:12;;;;;;;;;;;;;;;22.08;26.66;96751.31;5055465;28;1906;-77
2022/02/22 00:25:37;;;;;;;;;;;;;;;22.01;26.81;96740.31;5057410;28;968;-77
2022/02/22 00:28:02;;;;;;;;;;;;;;;22.31;26.63;96735.66;5015368;28;1796;-77
2022/02/22 00:30:28;;;;;;;;;;;;;;;22.38;26.52;96723.16;5017275;28;1037;-77
2022/02/22 00:32:53;;;;;;;;;;;;;;;22.19;26.41;96734.63;5015478;28;1067;-77
2022/02/22 00:35:19;;;;;;;;;;;;;;;21.97;26.41;96728.41;5016950;28;1035;-75
2022/02/22 00:37:44;;;;;;;;;;;;;;;21.98;26.28;96719.41;5015691;28;1171;-77
2022/02/22 00:40:10;;;;;;;;;;;;;;;22.11;27.00;96713.56;5015941;28;940;-77
2022/02/22 00:42:36;;;;;;;;;;;;;;;22.45;26.42;96711.50;4999304;28;1879;-77
2022/02/22 00:45:01;;;;;;;;;;;;;;;22.25;26.40;96710.03;5031079;28;1028;-77
2022/02/22 00:47:27;;;;;;;;;;;;;;;22.12;26.57;96700.94;4996041;28;1333;-77
2022/02/22 00:49:53;;;;;;;;;;;;;;;22.09;26.59;96707.56;4976695;28;977;-76
2022/02/22 00:52:18;;;;;;;;;;;;;;;22.06;26.79;96697.97;4976170;28;936;-76
2022/02/22 00:54:44;;;;;;;;;;;;;;;22.33;26.37;96694.25;4977054;28;941;-77
2022/02/22 00:57:09;;;;;;;;;;;;;;;22.62;26.24;96690.72;4976792;28;1246;-77
2022/02/22 00:59:35;;;;;;;;;;;;;;;22.27;26.49;96693.31;4962602;28;938;-77
2022/02/22 01:02:00;;;;;;;;;;;;;;;22.06;26.70;96691.50;4957280;29;1966;-77
2022/02/22 01:04:26;;;;;;;;;;;;;;;22.18;26.29;96693.38;4957043;29;1118;-77
2022/02/22 01:06:51;;;;;;;;;;;;;;;22.17;26.64;96697.47;4957843;29;1316;-77
2022/02/22 01:09:17;;;;;;;;;;;;;;;22.63;26.13;96688.66;4956835;29;962;-77
2022/02/22 01:11:42;;;;;;;;;;;;;;;22.40;25.89;96686.66;4957971;29;1121;-78
2022/02/22 01:14:08;;;;;;;;;;;;;;;22.23;26.60;96689.91;4939969;29;977;-76
2022/02/22 01:16:33;;;;;;;;;;;;;;;21.98;26.71;96695.97;4957218;29;1002;-77
2022/02/22 01:18:59;;;;;;;;;;;;;;;22.04;27.09;96699.72;4998927;28;917;-78
2022/02/22 01:21:24;;;;;;;;;;;;;;;22.48;26.23;96693.50;5060792;28;895;-78
2022/02/22 01:23:49;;;;;;;;;;;;;;;22.34;26.10;96689.34;5076652;28;1989;-76
2022/02/22 01:26:15;;;;;;;;;;;;;;;22.02;26.55;96696.56;5078519;28;1054;-77
2022/02/22 01:28:40;;;;;;;;;;;;;;;21.80;26.83;96691.94;5077488;28;1118;-77
2022/02/22 01:31:06;;;;;;;;;;;;;;;22.06;26.74;96694.34;5078225;28;930;-76
2022/02/22 01:33:31;;;;;;;;;;;;;;;21.93;26.85;96693.78;5076955;28;952;-78
2022/02/22 01:35:57;;;;;;;;;;;;;;;22.05;26.80;96702.06;5076967;28;905;-77
2022/02/22 01:38:22;;;;;;;;;;;;;;;22.13;26.52;96688.38;5076281;28;911;-78
2022/02/22 01:40:49;;;;;;;;;;;;;;;21.95;26.85;96696.91;5077261;28;1145;-76
2022/02/22 01:43:14;;;;;;;;;;;;;;;21.98;26.85;96696.75;5076496;28;1957;-77
2022/02/22 01:45:40;;;;;;;;;;;;;;;21.99;26.95;96697.53;5055199;28;953;-76
2022/02/22 01:48:05;;;;;;;;;;;;;;;21.91;27.27;96690.63;5053775;28;1056;-77
2022/02/22 01:50:31;;;;;;;;;;;;;;;21.87;27.28;96692.88;5055015;28;991;-77
2022/02/22 01:52:56;;;;;;;;;;;;;;;21.81;27.01;96687.88;5036909;28;1144;-77
2022/02/22 01:55:22;;;;;;;;;;;;;;;21.87;26.97;96678.72;5054901;28;942;-76
2022/02/22 01:57:47;;;;;;;;;;;;;;;21.84;27.17;96681.22;5037013;28;913;-77
2022/02/22 02:00:13;;;;;;;;;;;;;;;22.44;26.28;96670.25;5038587;28;1104;-78
2022/02/22 02:02:39;;;;;;;;;;;;;;;22.59;26.07;96676.75;5053359;28;1914;-77
2022/02/22 02:05:05;;;;;;;;;;;;;;;22.59;25.82;96673.91;5054720;28;1015;-76
2022/02/22 02:07:30;;;;;;;;;;;;;;;22.12;26.66;96675.44;5054242;28;976;-77
2022/02/22 02:09:56;;;;;;;;;;;;;;;22.03;26.58;96664.16;5054291;28;959;-77
2022/02/22 02:12:21;;;;;;;;;;;;;;;22.04;26.83;96660.06;5054020;28;1105;-76
2022/02/22 02:14:47;;;;;;;;;;;;;;;22.05;27.23;96661.63;5054657;28;1016;-77
2022/02/22 02:17:12;;;;;;;;;;;;;;;22.44;26.26;96670.25;5070771;28;1073;-77
2022/02/22 02:19:39;;;;;;;;;;;;;;;22.12;26.38;96661.28;5076423;28;900;-77
2022/02/22 02:22:05;;;;;;;;;;;;;;;22.09;26.44;96659.41;5076490;28;1972;-77
2022/02/22 02:24:30;;;;;;;;;;;;;;;22.05;26.63;96667.28;5076280;28;941;-76
2022/02/22 02:26:56;;;;;;;;;;;;;;;22.25;26.84;96661.84;5083466;28;885;-77
2022/02/22 02:29:22;;;;;;;;;;;;;;;22.44;26.15;96654.03;5082778;28;1028;-77
2022/02/22 02:31:48;;;;;;;;;;;;;;;22.16;26.56;96655.47;5083302;28;998;-76
2022/02/22 02:34:16;;;;;;;;;;;;;;;21.83;26.87;96659.06;5082652;28;973;-78
2022/02/22 02:36:43;;;;;;;;;;;;;;;21.98;26.51;96645.00;5083152;28;991;-77
2022/02/22 02:39:09;;;;;;;;;;;;;;;22.11;26.74;96648.41;5082762;28;1067;-78
2022/02/22 02:41:34;;;;;;;;;;;;;;;22.23;26.83;96649.44;5083838;28;946;-77
2022/02/22 02:44:00;;;;;;;;;;;;;;;22.45;26.47;96654.81;5079449;28;1905;-78
2022/02/22 02:46:26;;;;;;;;;;;;;;;22.17;26.75;96654.97;5083065;28;938;-77
2022/02/22 02:48:53;;;;;;;;;;;;;;;22.10;26.81;96658.13;5063392;28;1041;-77
2022/02/22 02:51:18;;;;;;;;;;;;;;;22.18;26.61;96659.38;5083107;28;900;-78
2022/02/22 02:53:44;;;;;;;;;;;;;;;22.27;26.60;96661.38;5082676;28;984;-77
2022/02/22 02:56:09;;;;;;;;;;;;;;;22.45;26.30;96660.47;5084162;28;1021;-77
2022/02/22 02:58:34;;;;;;;;;;;;;;;22.27;26.54;96653.63;5082974;28;908;-76
2022/02/22 03:01:00;;;;;;;;;;;;;;;22.04;27.01;96655.19;5082947;28;1163;-78
2022/02/22 03:03:25;;;;;;;;;;;;;;;21.99;26.97;96646.56;5082454;28;1910;-77
2022/02/22 03:05:51;;;;;;;;;;;;;;;21.96;26.98;96662.44;5083206;28;909;-78
2022/02/22 03:08:16;;;;;;;;;;;;;;;22.30;26.64;96655.53;5082180;28;893;-77
2022/02/22 03:10:42;;;;;;;;;;;;;;;22.37;26.48;96660.03;5083419;28;943;-77
2022/02/22 03:13:09;;;;;;;;;;;;;;;22.06;26.66;96661.13;5082145;28;913;-77
2022/02/22 03:15:34;;;;;;;;;;;;;;;22.14;26.73;96658.78;5065166;28;961;-77
2022/02/22 03:17:59;;;;;;;;;;;;;;;21.84;26.96;96658.56;5081926;28;897;-77
2022/02/22 03:20:25;;;;;;;;;;;;;;;22.02;27.00;96651.25;5083370;28;909;-77
2022/02/22 03:22:53;;;;;;;;;;;;;;;22.31;26.57;96645.75;5081889;28;1988;-77
2022/02/22 03:25:18;;;;;;;;;;;;;;;22.25;26.52;96646.91;5083390;28;925;-77
2022/02/22 03:27:44;;;;;;;;;;;;;;;22.03;27.05;96647.16;5082619;28;916;-77
2022/02/22 03:30:10;;;;;;;;;;;;;;;21.96;26.69;96644.69;5083344;28;938;-76
2022/02/22 03:32:35;;;;;;;;;;;;;;;21.75;27.53;96650.13;5082115;28;928;-77
2022/02/22 03:35:01;;;;;;;;;;;;;;;22.21;27.03;96647.06;5082872;28;922;-76
2022/02/22 03:37:26;;;;;;;;;;;;;;;22.48;26.35;96659.50;5079638;28;978;-78
2022/02/22 03:39:51;;;;;;;;;;;;;;;22.15;26.51;96643.34;5044155;28;947;-75
2022/02/22 03:42:17;;;;;;;;;;;;;;;22.14;26.72;96653.13;5079943;28;1910;-76
2022/02/22 03:44:42;;;;;;;;;;;;;;;22.04;26.57;96648.72;5079478;28;961;-77
2022/02/22 03:47:08;;;;;;;;;;;;;;;22.20;27.27;96654.00;5079378;28;969;-76
2022/02/22 03:49:33;;;;;;;;;;;;;;;22.40;26.45;96652.63;5078955;28;917;-77
2022/02/22 03:51:59;;;;;;;;;;;;;;;22.19;26.70;96649.63;5060697;28;962;-77
2022/02/22 03:54:24;;;;;;;;;;;;;;;22.02;27.05;96645.56;5078945;28;928;-76
2022/02/22 03:56:49;;;;;;;;;;;;;;;21.91;27.20;96645.31;5079319;28;939;-76
2022/02/22 03:59:15;;;;;;;;;;;;;;;22.23;26.95;96649.44;5079131;28;927;-77
2022/02/22 04:01:40;;;;;;;;;;;;;;;22.34;26.54;96644.81;5079955;28;1039;-76
2022/02/22 04:04:06;;;;;;;;;;;;;;;22.18;26.74;96642.38;5078267;28;1901;-77
2022/02/22 04:06:31;;;;;;;;;;;;;;;21.85;26.94;96643.16;5079833;28;1029;-78
2022/02/22 04:08:57;;;;;;;;;;;;;;;21.95;26.66;96640.28;5079439;28;902;-76
2022/02/22 04:11:22;;;;;;;;;;;;;;;22.12;26.79;96638.63;5079814;28;1076;-78
2022/02/22 04:13:48;;;;;;;;;;;;;;;21.98;27.19;96642.16;5079041;28;942;-76
2022/02/22 04:16:13;;;;;;;;;;;;;;;21.97;27.45;96643.44;5080016;28;899;-77
2022/02/22 04:18:38;;;;;;;;;;;;;;;22.33;26.76;96648.91;5078731;28;957;-78
2022/02/22 04:21:04;;;;;;;;;;;;;;;22.28;26.46;96646.72;5079600;28;893;-77
2022/02/22 04:23:30;;;;;;;;;;;;;;;22.10;26.88;96641.13;5078597;28;1906;-76
2022/02/22 04:25:55;;;;;;;;;;;;;;;21.98;27.05;96640.13;5079640;28;960;-77
2022/02/22 04:28:20;;;;;;;;;;;;;;;22.02;27.02;96645.56;5078589;28;907;-76
2022/02/22 04:30:46;;;;;;;;;;;;;;;22.05;27.14;96644.63;5079733;28;891;-77
2022/02/22 04:33:11;;;;;;;;;;;;;;;21.98;27.31;96650.66;5060126;28;1128;-77
2022/02/22 04:35:37;;;;;;;;;;;;;;;21.97;27.32;96651.94;5061423;28;946;-77
2022/02/22 04:38:02;;;;;;;;;;;;;;;22.18;26.81;96659.38;5078037;28;1177;-78
2022/02/22 04:40:29;;;;;;;;;;;;;;;22.48;26.36;96659.50;5080734;28;862;-77
2022/02/22 04:42:55;;;;;;;;;;;;;;;22.26;26.76;96660.59;5078027;28;1983;-77
2022/02/22 04:45:20;;;;;;;;;;;;;;;22.03;27.18;96672.66;5080167;28;1188;-76
2022/02/22 04:47:46;;;;;;;;;;;;;;;21.93;27.12;96676.81;5077858;28;916;-78
2022/02/22 04:50:11;;;;;;;;;;;;;;;22.21;27.05;96683.13;5079514;28;969;-77
2022/02/22 04:52:37;;;;;;;;;;;;;;;22.47;26.26;96672.09;5055535;28;979;-76
2022/02/22 04:55:03;;;;;;;;;;;;;;;22.16;26.53;96678.13;5056893;28;1005;-77
2022/02/22 04:57:28;;;;;;;;;;;;;;;21.99;27.21;96684.16;5035842;28;1153;-77
2022/02/22 04:59:54;;;;;;;;;;;;;;;21.84;27.08;96686.91;5036283;28;963;-78
2022/02/22 05:02:19;;;;;;;;;;;;;;;21.73;27.24;96647.00;5035927;28;1902;-78
2022/02/22 05:04:45;;;;;;;;;;;;;;;22.44;26.60;96698.59;5036651;28;1002;-77
2022/02/22 05:07:10;;;;;;;;;;;;;;;22.65;26.27;96703.16;5036403;28;915;-77
2022/02/22 05:09:36;;;;;;;;;;;;;;;22.03;26.78;96709.47;5036330;28;1007;-76
2022/02/22 05:12:01;;;;;;;;;;;;;;;21.91;27.38;96713.28;5036784;28;954;-77
2022/02/22 05:14:27;;;;;;;;;;;;;;;22.12;26.79;96728.50;5015689;28;1002;-78
2022/02/22 05:16:52;;;;;;;;;;;;;;;22.03;27.20;96726.47;5015953;28;982;-77
2022/02/22 05:19:18;;;;;;;;;;;;;;;21.89;27.46;96730.00;5015565;28;927;-78
2022/02/22 05:21:44;;;;;;;;;;;;;;;22.07;27.17;96721.41;5016828;28;984;-78
2022/02/22 05:24:09;;;;;;;;;;;;;;;22.50;26.26;96727.84;5016265;28;1987;-77
2022/02/22 05:26:35;;;;;;;;;;;;;;;22.18;26.63;96735.88;4983884;28;924;-78
2022/02/22 05:29:01;;;;;;;;;;;;;;;22.15;26.77;96739.66;4995818;28;971;-78
2022/02/22 05:31:26;;;;;;;;;;;;;;;22.05;26.76;96732.44;4996854;28;844;-78
2022/02/22 05:33:52;;;;;;;;;;;;;;;22.30;26.85;96734.09;4962796;28;962;-78
2022/02/22 05:36:20;;;;;;;;;;;;;;;22.53;26.31;96743.88;4958324;29;958;-77
2022/02/22 05:38:45;;;;;;;;;;;;;;;22.29;26.34;96743.84;4957280;29;974;-77
2022/02/22 05:41:13;;;;;;;;;;;;;;;22.20;26.71;96747.50;4958597;29;1022;-78
2022/02/22 05:43:39;;;;;;;;;;;;;;;21.89;27.01;96749.81;4956583;29;1899;-78
2022/02/22 05:46:04;;;;;;;;;;;;;;;22.01;26.61;96740.31;4987369;28;1018;-78
2022/02/22 05:48:29;;;;;;;;;;;;;;;22.03;27.24;96743.47;4994796;28;1545;-78
2022/02/22 05:50:55;;;;;;;;;;;;;;;22.30;26.83;96746.19;4996341;28;996;-77
2022/02/22 05:53:20;;;;;;;;;;;;;;;22.50;26.32;96748.47;4962429;28;1029;-77
2022/02/22 05:55:46;;;;;;;;;;;;;;;22.08;26.94;96748.50;4995831;28;1014;-78
2022/02/22 05:58:11;;;;;;;;;;;;;;;22.02;27.05;96747.53;4994990;28;978;-79
2022/02/22 06:00:37;;;;;;;;;;;;;;;22.01;26.98;96740.31;4959350;28;1209;-77
2022/02/22 06:03:03;;;;;;;;;;;;;;;22.00;27.14;96741.59;4974952;28;1910;-78
2022/02/22 06:05:28;;;;;;;;;;;;;;;22.38;26.68;96745.84;4976442;28;951;-78
2022/02/22 06:07:54;;;;;;;;;;;;;;;22.41;26.31;96730.72;5019678;28;1014;-77
2022/02/22 06:10:19;;;;;;;;;;;;;;;22.25;26.79;96741.19;5034686;28;995;-78
2022/02/22 06:12:45;;;;;;;;;;;;;;;22.12;26.90;96743.44;5033269;28;1023;-78
2022/02/22 06:15:11;;;;;;;;;;;;;;;22.13;26.64;96747.88;5035013;28;930;-78
2022/02/22 06:17:40;;;;;;;;;;;;;;;21.97;27.10;96748.22;5033730;28;929;-78
2022/02/22 06:20:05;;;;;;;;;;;;;;;21.98;26.93;96752.63;5034918;28;996;-79
2022/02/22 06:22:31;;;;;;;;;;;;;;;22.23;26.99;96768.44;5033594;28;1906;-78
2022/02/22 06:24:56;;;;;;;;;;;;;;;22.54;26.76;96766.09;5034763;28;878;-78
2022/02/22 06:27:22;;;;;;;;;;;;;;;22.34;26.49;96766.66;5033628;28;893;-78
2022/02/22 06:29:47;;;;;;;;;;;;;;;21.93;27.47;96773.09;5034112;28;1292;-77
2022/02/22 06:32:12;;;;;;;;;;;;;;;21.95;27.23;96770.56;5066195;28;942;-79
2022/02/22 06:34:38;;;;;;;;;;;;;;;21.95;27.08;96759.22;5076482;28;822;-77
2022/02/22 06:37:04;;;;;;;;;;;;;;;22.01;27.52;96758.09;5076599;28;929;-76
2022/02/22 06:39:29;;;;;;;;;;;;;;;22.48;26.66;96755.84;5077034;28;831;-78
2022/02/22 06:41:55;;;;;;;;;;;;;;;22.24;26.77;96759.47;5076935;28;1177;-79
2022/02/22 06:44:21;;;;;;;;;;;;;;;22.29;26.66;96750.31;5075948;28;1906;-78
2022/02/22 06:46:47;;;;;;;;;;;;;;;22.08;26.89;96745.66;5077097;28;1096;-78
2022/02/22 06:49:12;;;;;;;;;;;;;;;21.89;27.26;96744.16;5076307;28;851;-78
2022/02/22 06:51:37;;;;;;;;;;;;;;;21.94;27.05;96743.50;5077282;28;930;-76
2022/02/22 06:54:03;;;;;;;;;;;;;;;21.99;27.41;96748.53;5076328;28;941;-79
2022/02/22 06:56:28;;;;;;;;;;;;;;;22.44;26.94;96744.72;5073980;28;1147;-77
2022/02/22 06:58:54;;;;;;;;;;;;;;;22.27;26.87;96752.81;5075508;28;987;-79
2022/02/22 07:01:19;;;;;;;;;;;;;;;22.06;27.28;96739.66;5076923;28;1095;-78
2022/02/22 07:03:45;;;;;;;;;;;;;;;22.02;27.13;96744.72;5075986;28;1910;-78
2022/02/22 07:06:10;;;;;;;;;;;;;;;21.99;27.09;96749.31;5077205;28;877;-77
2022/02/22 07:08:36;;;;;;;;;;;;;;;22.23;26.95;96748.63;5057529;28;1009;-79
2022/02/22 07:11:01;;;;;;;;;;;;;;;22.52;26.73;96747.97;5082329;28;1229;-78
2022/02/22 07:13:26;;;;;;;;;;;;;;;22.23;27.07;96746.56;5098719;28;1220;-78
2022/02/22 07:15:52;;;;;;;;;;;;;;;22.01;27.19;96752.44;5099532;28;1231;-78
2022/02/22 07:18:17;;;;;;;;;;;;;;;22.11;26.86;96747.53;5098641;28;1188;-77
2022/02/22 07:20:43;;;;;;;;;;;;;;;21.99;26.94;96743.63;5100075;28;1228;-78
2022/02/22 07:23:08;;;;;;;;;;;;;;;22.09;26.79;96744.38;5080393;28;1967;-78
2022/02/22 07:25:34;;;;;;;;;;;;;;;22.05;27.03;96746.59;5099915;28;1172;-79
2022/02/22 07:28:00;;;;;;;;;;;;;;;22.39;27.01;96747.44;5098071;28;1188;-78
2022/02/22 07:30:25;;;;;;;;;;;;;;;22.66;26.25;96747.25;5099988;28;1153;-78
2022/02/22 07:32:53;;;;;;;;;;;;;;;22.24;26.73;96753.78;5098241;28;1268;-78
2022/02/22 07:35:18;;;;;;;;;;;;;;;22.04;27.30;96745.03;5100086;28;1211;-78
2022/02/22 07:37:44;;;;;;;;;;;;;;;21.91;27.47;96747.28;5097958;28;1327;-79
2022/02/22 07:40:10;;;;;;;;;;;;;;;21.88;27.13;96748.25;5100175;28;1173;-77
2022/02/22 07:42:36;;;;;;;;;;;;;;;21.99;27.72;96754.97;5098302;28;1910;-78
2022/02/22 07:45:02;;;;;;;;;;;;;;;22.37;26.71;96753.56;5098564;28;1243;-78
2022/02/22 07:47:27;;;;;;;;;;;;;;;22.13;26.84;96759.19;5099027;28;1441;-79
2022/02/22 07:49:52;;;;;;;;;;;;;;;22.19;26.94;96762.16;5100488;28;679;-78
2022/02/22 07:52:18;;;;;;;;;;;;;;;22.06;26.90;96765.16;5099619;28;822;-79
2022/02/22 07:54:43;;;;;;;;;;;;;;;21.99;27.33;96765.50;5100154;28;810;-78
2022/02/22 07:57:09;;;;;;;;;;;;;;;22.07;27.32;96761.06;5100385;28;735;-79
2022/02/22 07:59:34;;;;;;;;;;;;;;;22.50;26.73;96768.31;5098745;28;814;-78
2022/02/22 08:02:00;;;;;;;;;;;;;;;22.40;26.62;96772.44;5099988;28;1226;-78
2022/02/22 08:04:27;;;;;;;;;;;;;;;21.98;27.20;96778.09;5098855;28;1917;-78
2022/02/22 08:06:59;;;;;;;;;;;;;;;22.17;26.85;96773.94;5100048;28;790;-78
2022/02/22 08:09:24;;;;;;;;;;;;;;;22.18;27.21;96772.72;5099632;28;822;-79
2022/02/22 08:11:50;;;;;;;;;;;;;;;22.06;27.39;96777.28;5099780;28;1018;-79
2022/02/22 08:14:16;;;;;;;;;;;;;;;22.49;26.64;96778.06;5098593;28;751;-77
2022/02/22 08:16:43;;;;;;;;;;;;;;;22.59;26.41;96782.44;5099984;28;854;-79
2022/02/22 08:19:10;;;;;;;;;;;;;;;22.35;26.56;96782.38;5098467;28;1030;-78
2022/02/22 08:21:35;;;;;;;;;;;;;;;22.11;27.11;96784.38;5099618;28;1105;-79
2022/02/22 08:24:01;;;;;;;;;;;;;;;22.02;27.30;96790.03;5098549;28;1961;-78
2022/02/22 08:26:26;;;;;;;;;;;;;;;22.04;27.14;96796.03;5099590;28;850;-78
2022/02/22 08:28:52;;;;;;;;;;;;;;;22.02;27.24;96801.34;5098299;28;861;-77
2022/02/22 08:31:17;;;;;;;;;;;;;;;22.45;26.76;96813.53;5081556;28;782;-79
2022/02/22 08:33:42;;;;;;;;;;;;;;;22.44;26.76;96812.75;5098548;28;850;-78
2022/02/22 08:36:11;;;;;;;;;;;;;;;21.99;27.15;96813.66;5099787;28;739;-78
2022/02/22 08:38:37;;;;;;;;;;;;;;;22.01;27.41;96813.97;5098574;28;977;-79
2022/02/22 08:41:03;;;;;;;;;;;;;;;21.83;27.30;96815.59;5046660;28;961;-78
2022/02/22 08:43:28;;;;;;;;;;;;;;;21.93;27.20;96821.25;5098761;28;1902;-79
2022/02/22 08:45:54;;;;;;;;;;;;;;;22.26;27.32;96818.47;5098892;28;887;-78
2022/02/22 08:48:19;;;;;;;;;;;;;;;22.54;26.56;96819.94;5098003;28;758;-78
2022/02/22 08:50:45;;;;;;;;;;;;;;;22.24;27.01;96823.84;5098949;28;842;-79
2022/02/22 08:53:12;;;;;;;;;;;;;;;22.03;27.01;96820.72;5097877;28;758;-79
2022/02/22 08:55:38;;;;;;;;;;;;;;;22.05;26.75;96823.06;5099307;28;711;-78
2022/02/22 08:58:03;;;;;;;;;;;;;;;22.12;27.47;96831.25;5097714;28;822;-78
2022/02/22 09:00:31;;;;;;;;;;;;;;;22.21;27.02;96833.28;5056382;28;1060;-79
2022/02/22 09:03:00;;;;;;;;;;;;;;;22.22;26.80;96832.03;5054994;28;1910;-79
2022/02/22 09:05:29;;;;;;;;;;;;;;;21.97;26.85;96838.84;5056815;28;933;-79
2022/02/22 09:07:54;;;;;;;;;;;;;;;21.63;27.37;96842.84;5054797;28;916;-79
2022/02/22 09:10:20;;;;;;;;;;;;;;;21.96;26.93;96849.38;5055359;28;963;-75
2022/02/22 09:12:45;;;;;;;;;;;;;;;22.59;26.96;96852.53;5054034;28;997;-78
2022/02/22 09:15:11;;;;;;;;;;;;;;;22.72;26.93;96847.41;5056037;28;1022;-78
2022/02/22 09:17:37;;;;;;;;;;;;;;;22.39;26.92;96847.41;5038593;28;928;-79
2022/02/22 09:20:04;;;;;;;;;;;;;;;21.92;27.74;96845.16;5016996;28;920;-79
2022/02/22 09:22:29;;;;;;;;;;;;;;;21.96;27.39;96848.59;5015735;28;1902;-79
2022/02/22 09:24:54;;;;;;;;;;;;;;;21.83;27.43;96843.91;5016696;28;940;-79
2022/02/22 09:27:20;;;;;;;;;;;;;;;21.94;27.95;96853.94;5016313;28;876;-78
2022/02/22 09:29:45;;;;;;;;;;;;;;;22.27;27.46;96860.50;5016239;28;906;-78
2022/02/22 09:32:11;;;;;;;;;;;;;;;22.22;27.23;96863.19;5008253;28;912;-78
2022/02/22 09:34:36;;;;;;;;;;;;;;;21.94;27.47;96857.56;5015574;28;1114;-80
2022/02/22 09:37:03;;;;;;;;;;;;;;;21.81;27.50;96862.59;5017149;28;954;-79
2022/02/22 09:39:30;;;;;;;;;;;;;;;21.73;27.71;96867.81;5015761;28;919;-79
2022/02/22 09:41:55;;;;;;;;;;;;;;;22.06;27.42;96870.75;5017156;28;950;-79
2022/02/22 09:44:20;;;;;;;;;;;;;;;22.39;26.79;96863.63;5015544;28;1987;-78
2022/02/22 09:46:46;;;;;;;;;;;;;;;22.47;26.41;96873.34;5016997;28;984;-78
2022/02/22 09:49:13;;;;;;;;;;;;;;;22.10;27.06;96865.75;5015680;28;1049;-78
2022/02/22 09:51:38;;;;;;;;;;;;;;;22.03;27.06;96868.88;5016660;28;967;-79
2022/02/22 09:54:04;;;;;;;;;;;;;;;21.96;27.03;96862.75;5015374;28;980;-79
2022/02/22 09:56:29;;;;;;;;;;;;;;;22.14;27.26;96862.75;5020342;28;907;-79
2022/02/22 09:58:55;;;;;;;;;;;;;;;22.43;26.64;96861.38;5054959;28;918;-79
2022/02/22 10:01:20;;;;;;;;;;;;;;;22.49;26.44;96856.66;5056556;28;1350;-79
2022/02/22 10:04:04;;;;;;;;;;;;;;;21.96;27.32;96857.88;5086947;28;1902;-79
2022/02/22 10:06:30;;;;;;;;;;;;;;;22.06;26.77;96838.81;5063379;28;1573;-77
2022/02/22 10:08:56;;;;;;;;;;;;;;;21.84;27.31;96839.03;5097726;28;927;-78
2022/02/22 10:11:22;;;;;;;;;;;;;;;22.21;26.75;96836.13;5098631;28;956;-80
2022/02/22 10:13:47;;;;;;;;;;;;;;;22.54;26.24;96839.00;5096771;28;2035;-78
2022/02/22 10:16:13;;;;;;;;;;;;;;;22.25;26.62;96839.59;5098981;28;945;-79
2022/02/22 10:18:48;;;;;;;;;;;;;;;22.03;26.88;96839.78;5072964;28;1295;-79
2022/02/22 10:21:13;;;;;;;;;;;;;;;21.96;27.07;96834.44;5065424;28;1236;-78
2022/02/22 10:23:39;;;;;;;;;;;;;;;22.27;26.91;96835.00;5047416;28;1972;-78
2022/02/22 10:26:04;;;;;;;;;;;;;;;22.42;26.60;96828.66;5063798;28;1232;-78
2022/02/22 10:28:30;;;;;;;;;;;;;;;22.50;26.32;96824.22;5064519;28;1310;-79
2022/02/22 10:30:55;;;;;;;;;;;;;;;21.96;27.13;96808.94;5065257;28;1279;-79
2022/02/22 10:33:22;;;;;;;;;;;;;;;21.88;27.05;96813.38;5067329;28;1209;-79
2022/02/22 10:35:48;;;;;;;;;;;;;;;22.41;26.48;96810.06;5062129;28;1277;-75
2022/02/22 10:38:17;;;;;;;;;;;;;;;23.00;26.37;96802.69;5061246;28;1252;-77
2022/02/22 10:40:43;;;;;;;;;;;;;;;22.80;26.67;96799.63;5072983;28;1009;-79
2022/02/22 10:43:19;;;;;;;;;;;;;;;22.70;27.18;96801.75;5038789;28;2056;-77
2022/02/22 10:45:48;;;;;;;;;;;;;;;22.94;26.62;96804.59;5072217;28;1126;-72
2022/02/22 10:48:23;;;;;;;;;;;;;;;22.88;27.04;96810.16;5075767;28;1047;-75
2022/02/22 10:50:52;;;;;;;;;;;;;;;23.04;27.00;96813.84;5078156;28;983;-75
2022/02/22 10:53:18;;;;;;;;;;;;;;;23.16;26.92;96815.66;5078396;28;953;-74
2022/02/22 10:55:43;;;;;;;;;;;;;;;22.87;27.06;96811.41;5091376;28;1621;-74
2022/02/22 10:58:09;;;;;;;;;;;;;;;22.51;27.33;96815.22;5098791;28;861;-78
2022/02/22 11:00:34;;;;;;;;;;;;;;;22.31;27.66;96820.66;5080998;28;1148;-79
2022/02/22 11:03:00;;;;;;;;;;;;;;;22.20;28.04;96826.84;5079642;28;1981;-78
2022/02/22 11:05:25;;;;;;;;;;;;;;;22.07;28.15;96824.19;5081118;28;1554;-78
2022/02/22 11:07:51;;;;;;;;;;;;;;;21.96;27.98;96825.94;5055774;28;1026;-77
2022/02/22 11:10:17;;;;;;;;;;;;;;;21.97;27.84;96819.81;5056962;28;1002;-77
2022/02/22 11:12:45;;;;;;;;;;;;;;;21.93;28.08;96824.06;5039059;28;1021;-78
2022/02/22 11:15:11;;;;;;;;;;;;;;;21.95;28.04;96821.53;5039513;28;1219;-77
2022/02/22 11:17:49;;;;;;;;;;;;;;;22.09;28.29;96827.31;5017044;28;1654;-79
2022/02/22 11:20:30;;;;;;;;;;;;;;;22.39;28.45;96821.13;5035912;28;930;-78
2022/02/22 11:22:56;;;;;;;;;;;;;;;22.54;27.93;96822.78;5018755;28;1898;-79
2022/02/22 11:25:29;;;;;;;;;;;;;;;22.25;28.00;96817.69;5036046;28;950;-77
2022/02/22 11:28:20;;;;;;;;;;;;;;;21.85;28.05;96813.06;5035274;28;1023;-78
2022/02/22 11:30:46;;;;;;;;;;;;;;;21.95;27.84;96815.88;4970486;28;1241;-78
2022/02/22 11:33:12;;;;;;;;;;;;;;;21.91;28.26;96815.25;4969688;28;1270;-79
2022/02/22 11:35:47;;;;;;;;;;;;;;;22.41;27.23;96816.53;4977016;28;1202;-78
2022/02/22 11:38:12;;;;;;;;;;;;;;;22.61;27.14;96815.97;4980829;28;954;-77
2022/02/22 11:40:38;;;;;;;;;;;;;;;22.18;27.41;96806.72;4996563;28;1065;-77
2022/02/22 11:43:04;;;;;;;;;;;;;;;22.01;27.29;96811.13;4995675;28;1973;-78
2022/02/22 11:45:30;;;;;;;;;;;;;;;22.03;27.20;96805.78;4996412;28;1018;-76
2022/02/22 11:48:14;;;;;;;;;;;;;;;22.00;27.30;96812.41;4999718;28;1539;-79
2022/02/22 11:50:41;;;;;;;;;;;;;;;22.51;26.66;96812.38;5015743;28;927;-78
2022/02/22 11:53:11;;;;;;;;;;;;;;;22.74;26.37;96813.69;5014916;28;974;-78
2022/02/22 11:55:37;;;;;;;;;;;;;;;22.20;27.23;96815.50;5015911;28;1016;-78
2022/02/22 11:58:09;;;;;;;;;;;;;;;21.96;27.29;96808.94;5014209;28;1103;-79
2022/02/22 12:00:36;;;;;;;;;;;;;;;22.02;27.56;96804.19;5016219;28;948;-76
2022/02/22 12:03:08;;;;;;;;;;;;;;;22.54;26.44;96804.97;5014921;28;1903;-78
2022/02/22 12:05:38;;;;;;;;;;;;;;;22.79;26.14;96804.50;5015697;28;944;-78
2022/02/22 12:08:04;;;;;;;;;;;;;;;22.22;26.66;96807.31;5073114;28;1003;-78
2022/02/22 12:10:31;;;;;;;;;;;;;;;22.04;27.02;96818.69;5097757;28;1072;-78
2022/02/22 12:13:10;;;;;;;;;;;;;;;22.03;27.21;96800.91;5097099;28;927;-78
2022/02/22 12:15:36;;;;;;;;;;;;;;;22.38;26.49;96808.97;5079711;28;1019;-77
2022/02/22 12:18:02;;;;;;;;;;;;;;;22.53;25.93;96814.72;5097512;28;879;-76
2022/02/22 12:20:28;;;;;;;;;;;;;;;22.03;26.97;96805.78;5097157;28;1161;-79
2022/02/22 12:22:53;;;;;;;;;;;;;;;21.92;27.18;96811.97;5096576;28;1915;-77
2022/02/22 12:25:22;;;;;;;;;;;;;;;22.00;26.77;96810.34;5097853;28;875;-78
2022/02/22 12:27:48;;;;;;;;;;;;;;;22.33;26.45;96813.25;5096946;28;964;-77
2022/02/22 12:30:13;;;;;;;;;;;;;;;22.54;26.33;96813.50;5093950;28;1193;-77
2022/02/22 12:32:39;;;;;;;;;;;;;;;22.40;25.92;96814.19;5061414;28;936;-78
2022/02/22 12:35:09;;;;;;;;;;;;;;;22.10;26.92;96828.91;5095075;28;1020;-78
2022/02/22 12:37:41;;;;;;;;;;;;;;;21.91;27.01;96820.91;5097589;28;1426;-78
2022/02/22 12:40:08;;;;;;;;;;;;;;;21.98;27.02;96820.59;5097865;28;965;-78
2022/02/22 12:42:34;;;;;;;;;;;;;;;22.43;26.16;96822.50;5097262;28;1906;-76
2022/02/22 12:44:59;;;;;;;;;;;;;;;22.56;26.03;96831.56;5097699;28;886;-78
2022/02/22 12:47:25;;;;;;;;;;;;;;;22.21;26.17;96828.41;5061744;28;938;-76
2022/02/22 12:49:50;;;;;;;;;;;;;;;22.09;26.48;96826.53;5079097;28;1140;-78
2022/02/22 12:52:16;;;;;;;;;;;;;;;21.99;26.76;96822.16;5060777;28;1450;-78
2022/02/22 12:54:41;;;;;;;;;;;;;;;22.27;26.48;96826.50;5094188;28;1008;-79
2022/02/22 12:57:07;;;;;;;;;;;;;;;22.47;26.02;96830.81;5096995;28;910;-78